Time;durP1;ratioP1;P1;durP2;ratioP2;P2;SDS_P1;SDS_P2;PMS_P1;PMS_P2;Temp;Humidity;BMP_temperature;BMP_pressure;BME280_temperature;BME280_humidity;BME280_pressure;Samples;Min_cycle;Max_cycle;Signal;HPM_P1;HPM_P2
2023/05/24 00:01:13;;;;;;;9.47;2.57;;;10.70;99.90;;;;;;5094983;28;20233;-76
2023/05/24 00:03:38;;;;;;;6.43;4.17;;;10.60;99.90;;;;;;5110027;28;20184;-77
2023/05/24 00:06:05;;;;;;;10.67;3.03;;;10.60;99.90;;;;;;5107872;28;20184;-76
2023/05/24 00:08:34;;;;;;;4.97;2.53;;;10.60;99.90;;;;;;5078610;28;20193;-76
2023/05/24 00:11:00;;;;;;;5.90;2.60;;;10.70;99.90;;;;;;5108414;28;20777;-76
2023/05/24 00:13:26;;;;;;;4.37;2.63;;;10.70;99.90;;;;;;5078376;28;20180;-76
2023/05/24 00:15:52;;;;;;;5.30;2.40;;;10.80;99.90;;;;;;5090078;28;20193;-77
2023/05/24 00:18:18;;;;;;;10.03;3.13;;;10.80;99.90;;;;;;5112611;28;20208;-76
2023/05/24 00:20:44;;;;;;;7.80;2.57;;;10.80;99.90;;;;;;5094500;28;20287;-75
2023/05/24 00:23:10;;;;;;;5.23;2.97;;;10.80;99.90;;;;;;5095014;28;20188;-76
2023/05/24 00:25:35;;;;;;;11.20;2.87;;;10.70;99.90;;;;;;5077922;28;20278;-76
2023/05/24 00:28:01;;;;;;;5.27;2.80;;;10.70;99.90;;;;;;5098807;28;20636;-76
2023/05/24 00:30:27;;;;;;;7.37;1.97;;;10.70;99.90;;;;;;5098238;28;20195;-77
2023/05/24 00:32:52;;;;;;;9.63;2.60;;;10.80;99.90;;;;;;5081616;28;20245;-78
2023/05/24 00:35:18;;;;;;;5.83;3.30;;;10.80;99.90;;;;;;5084678;28;20185;-76
2023/05/24 00:37:44;;;;;;;4.23;2.90;;;10.80;99.90;;;;;;5116801;28;20218;-76
2023/05/24 00:40:13;;;;;;;11.67;2.47;;;10.70;99.90;;;;;;5064437;28;20565;-76
2023/05/24 00:42:38;;;;;;;14.30;2.67;;;10.70;99.90;;;;;;5082717;28;20193;-76
2023/05/24 00:45:05;;;;;;;5.93;2.90;;;10.60;99.90;;;;;;5067948;28;20329;-76
2023/05/24 00:47:31;;;;;;;9.17;2.40;;;10.50;99.90;;;;;;5112365;28;20191;-76
2023/05/24 00:49:57;;;;;;;9.27;2.83;;;10.60;99.90;;;;;;5088512;28;20202;-76
2023/05/24 00:52:23;;;;;;;5.13;2.47;;;10.50;99.90;;;;;;5109171;28;20536;-76
2023/05/24 00:54:49;;;;;;;6.10;2.13;;;10.30;99.90;;;;;;5105490;28;20184;-76
2023/05/24 00:57:17;;;;;;;3.57;2.87;;;10.30;99.90;;;;;;5095957;28;20320;-76
2023/05/24 00:59:44;;;;;;;3.33;2.40;;;10.20;99.90;;;;;;5110396;28;20253;-76
2023/05/24 01:02:10;;;;;;;7.47;2.47;;;10.30;99.90;;;;;;5086830;28;20192;-76
2023/05/24 01:04:36;;;;;;;13.53;2.80;;;10.30;99.90;;;;;;5068733;28;20188;-76
2023/05/24 01:07:15;;;;;;;9.60;3.37;;;10.20;99.90;;;;;;5084559;28;20199;-76
2023/05/24 01:09:44;;;;;;;10.80;3.20;;;10.10;99.90;;;;;;5115983;28;20659;-76
2023/05/24 01:12:47;;;;;;;7.20;2.80;;;10.20;99.90;;;;;;5112357;28;20644;-76
2023/05/24 01:15:23;;;;;;;8.80;2.20;;;10.20;99.90;;;;;;5111743;28;20621;-76
2023/05/24 01:18:00;;;;;;;5.27;2.60;;;10.30;99.90;;;;;;5088588;28;20179;-76
2023/05/24 01:20:29;;;;;;;7.10;2.87;;;10.20;99.90;;;;;;5110087;28;20219;-77
2023/05/24 01:23:27;;;;;;;4.63;3.47;;;10.10;99.90;;;;;;5112958;28;20267;-76
2023/05/24 01:26:12;;;;;;;6.57;3.30;;;10.10;99.90;;;;;;5087971;28;20180;-76
2023/05/24 01:28:39;;;;;;;6.63;4.00;;;10.00;99.90;;;;;;5114419;28;20645;-76
2023/05/24 01:31:05;;;;;;;8.87;4.27;;;10.00;99.90;;;;;;5093343;28;20189;-76
2023/05/24 01:33:32;;;;;;;7.73;3.00;;;10.00;99.90;;;;;;5109564;28;20237;-76
2023/05/24 01:35:57;;;;;;;10.53;2.90;;;10.00;99.90;;;;;;5094645;28;20275;-76
2023/05/24 01:38:23;;;;;;;14.43;3.07;;;10.00;99.90;;;;;;5095413;28;20736;-75
2023/05/24 01:40:54;;;;;;;11.37;3.53;;;10.00;99.90;;;;;;5083573;28;20196;-75
2023/05/24 01:43:34;;;;;;;5.87;3.53;;;9.90;99.90;;;;;;5114097;28;20271;-75
2023/05/24 01:46:29;;;;;;;10.47;3.63;;;9.90;99.90;;;;;;5110155;28;20666;-75
2023/05/24 01:49:15;;;;;;;8.63;3.77;;;9.90;99.90;;;;;;5104842;28;20184;-75
2023/05/24 01:51:49;;;;;;;13.53;3.37;;;10.10;99.90;;;;;;5114088;28;20549;-75
2023/05/24 01:54:19;;;;;;;9.37;3.70;;;10.10;99.90;;;;;;5107390;28;20313;-76
2023/05/24 01:56:47;;;;;;;13.23;2.93;;;10.10;99.90;;;;;;5092324;28;20208;-76
2023/05/24 01:59:13;;;;;;;8.73;2.97;;;10.20;99.90;;;;;;5087568;28;20206;-76
2023/05/24 02:01:40;;;;;;;6.23;3.30;;;10.10;99.90;;;;;;5112203;28;20180;-76
2023/05/24 02:04:06;;;;;;;9.77;2.93;;;10.10;99.90;;;;;;5100410;28;20214;-76
2023/05/24 02:06:31;;;;;;;5.50;2.60;;;10.00;99.90;;;;;;5082848;28;20184;-77
2023/05/24 02:08:57;;;;;;;8.37;2.70;;;10.00;99.90;;;;;;5094127;28;20195;-76
2023/05/24 02:11:23;;;;;;;6.53;2.73;;;10.00;99.90;;;;;;5092303;28;20184;-80
2023/05/24 02:13:48;;;;;;;13.13;4.07;;;10.00;99.90;;;;;;5095834;28;20186;-76
2023/05/24 02:16:14;;;;;;;9.60;3.73;;;10.00;99.90;;;;;;5095937;28;20179;-76
2023/05/24 02:18:43;;;;;;;7.20;3.27;;;10.00;99.90;;;;;;5045155;28;1287618;-75
2023/05/24 02:21:09;;;;;;;9.60;2.93;;;10.00;99.90;;;;;;5052171;28;20192;-75
2023/05/24 02:23:35;;;;;;;8.00;3.27;;;10.00;99.90;;;;;;5081714;28;20181;-76
2023/05/24 02:26:01;;;;;;;7.37;3.03;;;10.00;99.90;;;;;;5114395;28;20518;-76
2023/05/24 02:28:28;;;;;;;12.37;4.27;;;10.00;99.90;;;;;;5111423;28;20195;-76
2023/05/24 02:30:54;;;;;;;5.60;3.13;;;10.00;99.90;;;;;;5113508;28;20198;-76
2023/05/24 02:33:20;;;;;;;7.17;2.77;;;9.90;99.90;;;;;;5079803;28;20632;-75
2023/05/24 02:35:45;;;;;;;4.40;3.10;;;9.90;99.90;;;;;;5091006;28;20522;-76
2023/05/24 02:38:11;;;;;;;7.70;3.50;;;9.90;99.90;;;;;;5095676;28;20211;-76
2023/05/24 02:40:37;;;;;;;6.30;2.83;;;9.80;99.90;;;;;;5114665;28;20188;-76
2023/05/24 02:43:02;;;;;;;7.60;3.07;;;9.80;99.90;;;;;;5090227;28;20199;-75
2023/05/24 02:45:28;;;;;;;7.87;3.70;;;9.80;99.90;;;;;;5102774;28;20185;-76
2023/05/24 02:47:54;;;;;;;9.30;3.67;;;9.80;99.90;;;;;;5093113;28;20188;-76
2023/05/24 02:50:19;;;;;;;7.43;3.07;;;9.70;99.90;;;;;;5111576;28;20199;-76
2023/05/24 02:52:45;;;;;;;11.93;3.87;;;9.80;99.90;;;;;;5094050;28;20195;-77
2023/05/24 02:55:10;;;;;;;8.67;2.67;;;9.70;99.90;;;;;;5098343;28;20185;-77
2023/05/24 02:57:37;;;;;;;11.40;3.60;;;9.60;99.90;;;;;;5095963;28;20259;-76
2023/05/24 03:00:07;;;;;;;10.57;3.70;;;9.50;99.90;;;;;;5110936;28;20204;-76
2023/05/24 03:02:32;;;;;;;11.87;4.23;;;9.50;99.90;;;;;;5090197;28;20215;-76
2023/05/24 03:04:58;;;;;;;11.43;4.00;;;9.50;99.90;;;;;;5095464;28;20257;-76
2023/05/24 03:07:24;;;;;;;10.33;3.57;;;9.50;99.90;;;;;;5113847;28;20195;-76
2023/05/24 03:09:49;;;;;;;11.73;4.50;;;9.50;99.90;;;;;;5113936;28;20184;-75
2023/05/24 03:12:15;;;;;;;8.27;3.80;;;9.50;99.90;;;;;;5095704;28;20282;-76
2023/05/24 03:14:41;;;;;;;8.97;3.57;;;9.40;99.90;;;;;;5099504;28;20576;-76
2023/05/24 03:17:06;;;;;;;7.87;3.90;;;9.50;99.90;;;;;;5095143;28;20191;-75
2023/05/24 03:19:32;;;;;;;14.30;5.97;;;9.40;99.90;;;;;;5087623;28;20588;-75
2023/05/24 03:21:58;;;;;;;9.70;4.60;;;9.40;99.90;;;;;;5078674;28;20248;-76
2023/05/24 03:24:24;;;;;;;11.53;5.63;;;9.40;99.90;;;;;;5091373;28;20267;-76
2023/05/24 03:26:50;;;;;;;11.97;4.00;;;9.40;99.90;;;;;;5085091;28;20188;-76
2023/05/24 03:29:16;;;;;;;11.87;4.90;;;9.40;99.90;;;;;;5105978;28;20195;-77
2023/05/24 03:31:41;;;;;;;17.47;6.03;;;9.30;99.90;;;;;;5078553;28;20180;-75
2023/05/24 03:34:07;;;;;;;13.57;5.13;;;9.30;99.90;;;;;;5104715;28;20229;-76
2023/05/24 03:36:33;;;;;;;10.03;5.27;;;9.20;99.90;;;;;;5090375;28;20188;-81
2023/05/24 03:38:58;;;;;;;15.23;4.97;;;9.20;99.90;;;;;;5082223;28;20208;-76
2023/05/24 03:41:25;;;;;;;15.07;5.07;;;9.20;99.90;;;;;;5100133;28;20191;-76
2023/05/24 03:43:51;;;;;;;9.53;4.40;;;9.20;99.90;;;;;;5078259;28;20534;-76
2023/05/24 03:46:17;;;;;;;13.87;6.20;;;9.20;99.90;;;;;;5112651;28;20183;-76
2023/05/24 03:48:42;;;;;;;17.00;6.40;;;9.20;99.90;;;;;;5095208;28;20535;-76
2023/05/24 03:51:08;;;;;;;18.43;7.00;;;9.20;99.90;;;;;;5078191;28;20180;-76
2023/05/24 03:53:34;;;;;;;14.13;5.00;;;9.20;99.90;;;;;;5113237;28;20641;-76
2023/05/24 03:55:59;;;;;;;18.87;6.00;;;9.30;99.90;;;;;;5094758;28;20188;-77
2023/05/24 03:58:25;;;;;;;11.77;4.93;;;9.20;99.90;;;;;;5113243;28;20668;-76
2023/05/24 04:00:51;;;;;;;17.23;5.73;;;9.30;99.90;;;;;;5094620;28;20195;-77
2023/05/24 04:03:18;;;;;;;12.07;6.87;;;9.30;99.90;;;;;;5109053;28;20188;-76
2023/05/24 04:05:44;;;;;;;7.27;4.23;;;9.30;99.90;;;;;;5085628;28;20599;-74
2023/05/24 04:08:11;;;;;;;11.13;5.93;;;9.20;99.90;;;;;;5094416;28;20188;-75
2023/05/24 04:10:37;;;;;;;13.83;7.63;;;9.20;99.90;;;;;;5112928;28;20180;-80
2023/05/24 04:13:02;;;;;;;14.87;6.87;;;9.20;99.90;;;;;;5113601;28;20651;-75
2023/05/24 04:15:28;;;;;;;16.57;7.20;;;9.20;99.90;;;;;;5094313;28;20206;-75
2023/05/24 04:17:54;;;;;;;14.40;7.10;;;9.20;99.90;;;;;;5094746;28;20275;-76
2023/05/24 04:20:24;;;;;;;11.83;6.80;;;9.30;99.90;;;;;;5112553;28;20311;-75
2023/05/24 04:22:50;;;;;;;16.23;5.80;;;9.40;99.90;;;;;;5095424;28;20199;-75
2023/05/24 04:25:16;;;;;;;10.87;6.07;;;9.50;99.90;;;;;;5111933;28;20265;-74
2023/05/24 04:27:42;;;;;;;11.33;5.53;;;9.50;99.90;;;;;;5112889;28;20668;-74
2023/05/24 04:30:08;;;;;;;11.57;6.43;;;9.50;99.90;;;;;;5112533;28;20293;-75
2023/05/24 04:32:34;;;;;;;11.13;6.07;;;9.60;99.90;;;;;;5112057;28;20317;-76
2023/05/24 04:35:01;;;;;;;13.77;6.20;;;9.60;99.90;;;;;;5112897;28;20274;-76
2023/05/24 04:37:28;;;;;;;18.93;7.00;;;9.60;99.90;;;;;;5094491;28;20594;-75
2023/05/24 04:39:53;;;;;;;9.33;5.90;;;9.80;99.90;;;;;;5077264;28;20692;-75
2023/05/24 04:42:19;;;;;;;12.30;5.93;;;9.80;99.90;;;;;;5077408;28;20198;-74
2023/05/24 04:44:45;;;;;;;25.37;7.77;;;9.90;99.90;;;;;;5090534;28;20180;-74
2023/05/24 04:47:11;;;;;;;12.47;7.30;;;9.70;99.90;;;;;;5112728;28;20196;-74
2023/05/24 04:49:38;;;;;;;15.93;6.93;;;9.80;99.90;;;;;;5112598;28;20216;-75
2023/05/24 04:52:04;;;;;;;13.63;7.80;;;9.90;99.90;;;;;;5089672;28;20192;-75
2023/05/24 04:54:30;;;;;;;16.23;8.40;;;10.10;99.90;;;;;;5110191;28;20632;-75
2023/05/24 04:56:55;;;;;;;25.90;8.73;;;10.00;99.90;;;;;;5085825;28;20226;-75
2023/05/24 04:59:21;;;;;;;16.60;9.30;;;10.10;99.90;;;;;;5080130;28;20579;-75
2023/05/24 05:01:47;;;;;;;19.97;7.30;;;10.30;99.90;;;;;;5077335;28;20572;-75
2023/05/24 05:04:13;;;;;;;12.30;6.30;;;10.30;99.90;;;;;;5082163;28;20598;-75
2023/05/24 05:06:39;;;;;;;16.47;6.13;;;10.30;99.90;;;;;;5087930;28;20630;-75
2023/05/24 05:09:09;;;;;;;18.80;6.88;;;10.50;99.90;;;;;;5077936;28;20195;-75
2023/05/24 05:11:35;;;;;;;11.95;6.70;;;10.50;99.90;;;;;;5108895;28;20185;-75
2023/05/24 05:14:01;;;;;;;13.32;6.32;;;10.60;99.90;;;;;;5094187;28;20553;-75
2023/05/24 05:16:27;;;;;;;17.40;7.05;;;10.70;99.90;;;;;;5100694;28;20180;-76
2023/05/24 05:18:53;;;;;;;16.83;9.07;;;10.70;99.90;;;;;;5109015;28;20608;-75
2023/05/24 05:21:18;;;;;;;20.63;10.63;;;10.80;99.90;;;;;;5077572;28;20192;-79
2023/05/24 05:23:45;;;;;;;20.48;13.25;;;10.80;99.90;;;;;;5097299;28;20270;-75
2023/05/24 05:26:11;;;;;;;14.18;8.95;;;10.90;99.90;;;;;;5080904;28;20188;-75
2023/05/24 05:28:36;;;;;;;17.58;11.52;;;11.00;99.90;;;;;;5104102;28;20196;-76
2023/05/24 05:31:02;;;;;;;16.90;8.10;;;11.10;99.90;;;;;;5097656;28;20184;-75
2023/05/24 05:33:31;;;;;;;20.00;7.82;;;11.20;99.90;;;;;;5097691;28;20184;-76
2023/05/24 05:35:56;;;;;;;14.82;7.15;;;11.30;99.90;;;;;;5102062;28;20697;-76
2023/05/24 05:38:22;;;;;;;22.52;7.18;;;11.30;99.90;;;;;;5105927;28;20290;-76
2023/05/24 05:40:48;;;;;;;13.90;5.93;;;11.40;99.90;;;;;;5115357;28;20195;-76
2023/05/24 05:43:14;;;;;;;23.38;7.13;;;11.50;99.90;;;;;;5108269;28;20643;-79
2023/05/24 05:45:39;;;;;;;18.63;6.20;;;11.60;99.90;;;;;;5115201;28;20199;-76
2023/05/24 05:48:05;;;;;;;13.13;4.75;;;11.70;99.90;;;;;;5088672;28;20271;-75
2023/05/24 05:50:31;;;;;;;15.15;5.50;;;11.70;99.90;;;;;;5097188;28;20192;-76
2023/05/24 05:52:56;;;;;;;15.15;5.40;;;11.70;99.90;;;;;;5082810;28;20183;-75
2023/05/24 05:55:23;;;;;;;18.65;5.97;;;11.80;99.90;;;;;;5087935;28;20185;-76
2023/05/24 05:57:48;;;;;;;12.57;5.47;;;11.90;99.90;;;;;;5114607;28;20180;-78
2023/05/24 06:00:15;;;;;;;10.95;4.97;;;12.10;99.90;;;;;;5115585;28;20276;-76
2023/05/24 06:02:40;;;;;;;7.90;4.13;;;12.00;99.90;;;;;;5096992;28;20187;-75
2023/05/24 06:05:06;;;;;;;10.27;4.85;;;12.20;99.90;;;;;;5097386;28;20199;-75
2023/05/24 06:07:32;;;;;;;9.05;5.15;;;12.20;99.90;;;;;;5080221;28;20279;-75
2023/05/24 06:09:58;;;;;;;8.27;4.35;;;12.20;99.90;;;;;;5111849;28;20700;-76
2023/05/24 06:12:24;;;;;;;14.57;4.57;;;12.40;99.90;;;;;;5108162;28;20552;-78
2023/05/24 06:14:51;;;;;;;12.55;4.00;;;12.50;99.90;;;;;;5113780;28;20524;-77
2023/05/24 06:17:17;;;;;;;5.07;3.83;;;12.50;99.90;;;;;;5106526;28;20172;-77
2023/05/24 06:19:43;;;;;;;15.80;4.35;;;12.50;99.90;;;;;;5077966;28;20262;-76
2023/05/24 06:22:09;;;;;;;10.05;4.32;;;12.50;99.90;;;;;;5114475;28;20222;-75
2023/05/24 06:24:35;;;;;;;12.82;4.43;;;12.60;99.90;;;;;;5069935;28;20275;-76
2023/05/24 06:27:01;;;;;;;16.58;3.95;;;12.60;99.90;;;;;;5077209;28;20176;-75
2023/05/24 06:29:27;;;;;;;11.55;3.92;;;12.70;99.90;;;;;;5114658;28;20712;-75
2023/05/24 06:31:52;;;;;;;9.48;3.80;;;12.70;99.90;;;;;;5096061;28;20215;-77
2023/05/24 06:34:22;;;;;;;11.88;4.03;;;12.90;99.90;;;;;;5092374;28;20520;-76
2023/05/24 06:36:49;;;;;;;7.72;3.17;;;12.80;99.90;;;;;;5109671;28;20293;-77
2023/05/24 06:39:16;;;;;;;12.27;4.88;;;12.80;99.90;;;;;;5079657;28;20207;-79
2023/05/24 06:41:43;;;;;;;13.63;3.72;;;13.00;99.90;;;;;;5092274;28;20184;-76
2023/05/24 06:44:09;;;;;;;7.88;3.25;;;13.00;99.90;;;;;;5111332;28;20188;-76
2023/05/24 06:46:35;;;;;;;6.68;3.25;;;13.10;99.90;;;;;;5095936;28;20655;-79
2023/05/24 06:49:01;;;;;;;7.63;4.22;;;13.10;99.90;;;;;;5108034;28;20188;-76
2023/05/24 06:51:26;;;;;;;8.20;3.55;;;13.30;99.90;;;;;;5095871;28;20184;-76
2023/05/24 06:53:52;;;;;;;11.63;3.35;;;13.10;99.90;;;;;;5095224;28;20203;-76
2023/05/24 06:56:18;;;;;;;5.72;3.08;;;13.10;99.90;;;;;;5096299;28;20267;-77
2023/05/24 06:58:43;;;;;;;10.63;4.20;;;13.30;99.90;;;;;;5078479;28;20295;-77
2023/05/24 07:01:10;;;;;;;9.23;3.58;;;13.40;99.90;;;;;;5095433;28;20192;-76
2023/05/24 07:03:36;;;;;;;7.70;3.28;;;13.80;99.90;;;;;;5114237;28;20632;-77
2023/05/24 07:06:02;;;;;;;12.45;3.05;;;14.70;99.90;;;;;;5095645;28;20537;-78
2023/05/24 07:08:28;;;;;;;11.32;3.28;;;16.60;99.90;;;;;;5084748;28;20198;-78
2023/05/24 07:10:54;;;;;;;5.88;2.42;;;19.30;99.90;;;;;;5095459;28;20184;-78
2023/05/24 07:13:20;;;;;;;6.13;3.15;;;20.80;99.90;;;;;;5104180;28;20290;-78
2023/05/24 07:15:46;;;;;;;6.65;2.63;;;20.50;99.90;;;;;;5105345;28;20766;-78
2023/05/24 07:18:12;;;;;;;4.15;2.63;;;19.60;99.90;;;;;;5096212;28;20228;-79
2023/05/24 07:20:38;;;;;;;13.80;3.72;;;19.00;99.90;;;;;;5106543;28;20180;-79
2023/05/24 07:23:05;;;;;;;5.30;2.95;;;18.10;99.90;;;;;;5113815;28;20245;-77
2023/05/24 07:25:32;;;;;;;10.13;3.30;;;18.00;99.90;;;;;;5095383;28;20567;-77
2023/05/24 07:27:58;;;;;;;7.40;3.15;;;17.40;99.90;;;;;;5113634;28;20191;-77
2023/05/24 07:30:24;;;;;;;10.38;2.78;;;16.80;99.90;;;;;;5093330;28;20183;-70
2023/05/24 07:32:50;;;;;;;11.65;3.42;;;16.70;99.90;;;;;;5094899;28;20240;-77
2023/05/24 07:35:16;;;;;;;3.53;2.50;;;16.80;99.90;;;;;;5112768;28;20311;-79
2023/05/24 07:37:41;;;;;;;7.70;3.13;;;16.80;99.90;;;;;;5091672;28;20282;-78
2023/05/24 07:40:11;;;;;;;6.57;3.05;;;16.70;99.90;;;;;;5087988;28;20655;-78
2023/05/24 07:42:40;;;;;;;4.97;2.63;;;16.80;99.90;;;;;;5112535;28;20614;-80
2023/05/24 07:45:07;;;;;;;7.82;3.08;;;17.10;99.90;;;;;;5065353;28;20195;-78
2023/05/24 07:47:34;;;;;;;7.10;2.95;;;17.40;99.90;;;;;;5112425;28;20270;-79
2023/05/24 07:49:59;;;;;;;5.50;2.90;;;17.50;99.90;;;;;;5082031;28;20216;-80
2023/05/24 07:52:25;;;;;;;10.70;3.53;;;17.20;99.90;;;;;;5111757;28;20215;-74
2023/05/24 07:54:53;;;;;;;6.20;3.45;;;17.20;99.90;;;;;;5074316;28;20189;-75
2023/05/24 07:57:19;;;;;;;7.07;2.53;;;17.60;99.90;;;;;;5108320;28;20685;-76
2023/05/24 07:59:45;;;;;;;9.63;3.08;;;18.20;99.90;;;;;;5089805;28;20219;-74
2023/05/24 08:02:15;;;;;;;11.73;3.28;;;18.70;99.90;;;;;;5103704;28;20220;-80
2023/05/24 08:04:41;;;;;;;7.65;2.55;;;18.80;99.90;;;;;;5095035;28;20179;-78
2023/05/24 08:07:08;;;;;;;7.57;2.90;;;18.90;99.90;;;;;;5095126;28;20192;-81
2023/05/24 08:09:35;;;;;;;9.23;3.53;;;18.80;99.90;;;;;;5094014;28;20663;-79
2023/05/24 08:12:05;;;;;;;4.45;2.70;;;19.40;99.90;;;;;;5095263;28;20190;-76
2023/05/24 08:14:31;;;;;;;6.50;2.75;;;20.80;99.90;;;;;;5094425;28;20180;-77
2023/05/24 08:16:59;;;;;;;5.05;1.92;;;22.10;99.90;;;;;;5087031;28;20183;-79
2023/05/24 08:19:34;;;;;;;8.07;2.97;;;22.70;99.90;;;;;;5093490;28;20308;-77
2023/05/24 08:22:03;;;;;;;10.10;2.67;;;23.00;99.90;;;;;;5111272;28;20179;-78
2023/05/24 08:24:30;;;;;;;8.43;2.55;;;24.00;99.90;;;;;;5094474;28;20633;-80
2023/05/24 08:26:56;;;;;;;5.13;2.63;;;25.10;99.90;;;;;;5111601;28;20171;-80
2023/05/24 08:29:21;;;;;;;4.88;3.53;;;25.30;99.90;;;;;;5074613;28;20187;-81
2023/05/24 08:31:47;;;;;;;5.28;3.08;;;26.00;99.90;;;;;;5095023;28;20240;-77
2023/05/24 08:34:13;;;;;;;3.97;2.70;;;25.70;99.90;;;;;;5113147;28;20724;-78
2023/05/24 08:36:41;;;;;;;10.15;3.65;;;25.40;99.90;;;;;;5095031;28;20183;-77
2023/05/24 08:39:08;;;;;;;7.63;3.38;;;25.00;99.90;;;;;;5093241;28;20207;-81
2023/05/24 08:41:36;;;;;;;7.03;3.30;;;23.60;99.90;;;;;;5095016;28;20540;-75
2023/05/24 08:44:05;;;;;;;9.38;3.25;;;23.30;99.90;;;;;;5094753;28;20187;-76
2023/05/24 08:46:34;;;;;;;7.25;2.92;;;22.70;99.90;;;;;;5107953;28;20184;-78
2023/05/24 08:49:04;;;;;;;7.13;3.00;;;22.10;99.90;;;;;;5074750;28;20257;-74
2023/05/24 08:51:30;;;;;;;6.38;4.20;;;21.80;99.90;;;;;;5091165;28;20187;-76
2023/05/24 08:54:00;;;;;;;11.93;4.65;;;21.80;99.90;;;;;;5117264;28;20208;-75
2023/05/24 08:56:27;;;;;;;9.05;4.13;;;21.90;99.90;;;;;;5104282;28;20184;-75
2023/05/24 08:58:54;;;;;;;9.60;3.60;;;22.20;99.90;;;;;;5116060;28;20219;-76
2023/05/24 09:01:20;;;;;;;11.20;4.10;;;22.10;99.90;;;;;;5098378;28;20553;-78
2023/05/24 09:03:46;;;;;;;9.23;3.92;;;22.10;99.90;;;;;;5116532;28;20180;-75
2023/05/24 09:06:15;;;;;;;10.75;4.53;;;21.50;99.90;;;;;;5114104;28;20196;-74
2023/05/24 09:08:42;;;;;;;6.40;3.47;;;21.60;99.90;;;;;;5116401;28;20180;-76
2023/05/24 09:11:08;;;;;;;10.18;4.88;;;21.50;99.90;;;;;;5095801;28;20276;-73
2023/05/24 09:13:34;;;;;;;15.35;4.35;;;21.60;99.90;;;;;;5091922;28;20191;-76
2023/05/24 09:16:01;;;;;;;11.18;4.45;;;22.70;99.90;;;;;;5072118;28;20543;-76
2023/05/24 09:18:27;;;;;;;12.00;5.95;;;24.00;99.90;;;;;;5077658;28;20227;-77
2023/05/24 09:20:52;;;;;;;8.75;3.67;;;24.20;99.90;;;;;;5116201;28;20267;-77
2023/05/24 09:23:18;;;;;;;11.77;5.38;;;24.90;99.90;;;;;;5115815;28;20213;-76
2023/05/24 09:25:45;;;;;;;9.38;4.30;;;25.40;99.90;;;;;;5082889;28;20175;-75
2023/05/24 09:28:17;;;;;;;7.07;5.25;;;24.90;99.90;;;;;;5115721;28;20514;-76
2023/05/24 09:30:57;;;;;;;8.85;4.55;;;24.10;99.90;;;;;;5113711;28;20180;-73
2023/05/24 09:33:27;;;;;;;10.32;6.18;;;22.90;99.90;;;;;;5096795;28;20203;-75
2023/05/24 09:35:57;;;;;;;14.43;6.05;;;22.00;99.90;;;;;;5113294;28;20180;-75
2023/05/24 09:38:24;;;;;;;12.07;8.32;;;21.50;99.90;;;;;;5104513;28;20204;-76
2023/05/24 09:41:09;;;;;;;13.80;7.10;;;21.30;99.90;;;;;;5094402;28;20631;-76
2023/05/24 09:43:47;;;;;;;11.60;7.28;;;20.90;99.90;;;;;;5064948;28;20191;-77
2023/05/24 09:46:17;;;;;;;22.00;7.47;;;20.70;99.90;;;;;;5115297;28;20262;-82
2023/05/24 09:48:57;;;;;;;11.93;7.72;;;20.40;99.90;;;;;;5094641;28;20255;-79
2023/05/24 09:51:23;;;;;;;11.80;7.43;;;20.80;99.90;;;;;;5090521;28;20191;-79
2023/05/24 09:53:51;;;;;;;11.52;6.32;;;20.80;99.90;;;;;;5089179;28;20183;-80
2023/05/24 09:56:17;;;;;;;16.42;8.52;;;20.50;99.90;;;;;;5091705;28;20176;-81
2023/05/24 09:58:44;;;;;;;15.07;7.32;;;19.70;99.90;;;;;;5093317;28;20208;-80
2023/05/24 10:01:12;;;;;;;16.67;7.63;;;19.20;99.90;;;;;;5084399;28;20668;-80
2023/05/24 10:03:38;;;;;;;17.73;8.43;;;19.10;99.90;;;;;;5073920;28;20184;-79
2023/05/24 10:06:07;;;;;;;14.85;7.97;;;19.40;99.90;;;;;;5113114;28;20549;-79
2023/05/24 10:08:35;;;;;;;16.08;9.98;;;19.80;99.90;;;;;;5084293;28;20270;-80
2023/05/24 10:11:03;;;;;;;19.42;9.30;;;20.00;99.90;;;;;;5096478;28;20195;-78
2023/05/24 10:13:30;;;;;;;16.42;9.48;;;20.20;99.90;;;;;;5107111;28;20169;-82
2023/05/24 10:15:56;;;;;;;13.75;9.23;;;20.40;99.90;;;;;;5095990;28;20196;-78
2023/05/24 10:18:22;;;;;;;13.90;8.93;;;20.20;99.90;;;;;;5080257;28;20199;-81
2023/05/24 10:20:49;;;;;;;16.10;10.40;;;20.50;99.90;;;;;;5116407;28;20196;-83
2023/05/24 10:23:20;;;;;;;15.93;9.55;;;21.00;99.90;;;;;;5079911;28;20184;-81
2023/05/24 10:25:52;;;;;;;13.82;9.20;;;21.20;99.90;;;;;;5088596;28;20218;-80
2023/05/24 10:28:20;;;;;;;14.30;8.70;;;21.70;99.90;;;;;;5109021;28;20202;-80
2023/05/24 10:31:01;;;;;;;12.18;7.70;;;21.70;99.90;;;;;;5106785;28;20172;-79
2023/05/24 10:33:28;;;;;;;11.48;8.38;;;21.10;99.90;;;;;;5088126;28;20206;-77
2023/05/24 10:35:55;;;;;;;18.85;10.38;;;20.80;99.90;;;;;;5079249;28;20589;-78
2023/05/24 10:38:22;;;;;;;14.98;8.85;;;19.70;99.90;;;;;;5109082;28;20266;-77
2023/05/24 10:40:48;;;;;;;14.52;7.78;;;19.70;99.90;;;;;;5078776;28;20192;-77
2023/05/24 10:43:16;;;;;;;10.90;7.60;;;20.10;99.90;;;;;;5114662;28;20536;-77
2023/05/24 10:45:46;;;;;;;16.63;6.78;;;20.70;99.90;;;;;;5092145;28;20245;-78
2023/05/24 10:48:12;;;;;;;13.55;7.35;;;21.10;99.90;;;;;;5113140;28;20172;-77
2023/05/24 10:50:41;;;;;;;14.27;7.32;;;21.00;99.90;;;;;;5114412;28;20184;-77
2023/05/24 10:53:15;;;;;;;12.27;5.85;;;20.30;99.90;;;;;;5089262;28;20177;-78
2023/05/24 10:55:56;;;;;;;11.10;5.93;;;20.40;99.90;;;;;;5087949;28;20583;-77
2023/05/24 10:58:42;;;;;;;9.25;7.32;;;20.60;99.90;;;;;;5095505;28;20300;-76
2023/05/24 11:01:35;;;;;;;10.30;6.07;;;20.80;99.90;;;;;;5114130;28;20188;-78
2023/05/24 11:04:15;;;;;;;9.77;6.18;;;20.90;99.90;;;;;;5090820;28;20691;-77
2023/05/24 11:06:49;;;;;;;10.00;6.03;;;21.00;99.90;;;;;;5113577;28;20176;-77
2023/05/24 11:09:16;;;;;;;10.32;4.82;;;21.00;99.90;;;;;;5084776;28;20525;-78
2023/05/24 11:12:08;;;;;;;12.75;4.65;;;21.00;99.90;;;;;;5105321;28;20604;-78
2023/05/24 11:14:40;;;;;;;15.05;5.28;;;20.90;99.90;;;;;;5104850;28;20629;-77
2023/05/24 11:17:07;;;;;;;12.15;6.45;;;21.10;99.90;;;;;;5091761;28;20194;-77
2023/05/24 11:19:35;;;;;;;11.98;7.75;;;21.10;99.90;;;;;;5077982;28;20630;-76
2023/05/24 11:22:04;;;;;;;9.88;5.70;;;20.80;99.90;;;;;;5113349;28;20252;-76
2023/05/24 11:24:31;;;;;;;9.82;5.70;;;20.90;99.90;;;;;;5113481;28;20183;-76
2023/05/24 11:27:00;;;;;;;7.63;4.93;;;21.10;99.90;;;;;;5113326;28;20328;-76
2023/05/24 11:29:28;;;;;;;7.70;5.35;;;21.20;99.90;;;;;;5074586;28;20196;-76
2023/05/24 11:32:04;;;;;;;13.10;6.22;;;21.40;99.90;;;;;;5078983;28;20543;-77
2023/05/24 11:34:31;;;;;;;12.10;6.18;;;21.40;99.90;;;;;;5107838;28;20190;-78
2023/05/24 11:37:04;;;;;;;10.45;6.57;;;21.50;99.90;;;;;;5095334;28;20655;-76
2023/05/24 11:39:31;;;;;;;12.38;4.97;;;21.70;99.90;;;;;;5095163;28;20301;-79
2023/05/24 11:41:58;;;;;;;6.47;4.57;;;21.70;99.90;;;;;;5094657;28;20648;-76
2023/05/24 11:44:24;;;;;;;8.88;4.28;;;21.60;99.90;;;;;;5112522;28;20183;-73
2023/05/24 11:47:03;;;;;;;7.95;4.55;;;21.20;99.90;;;;;;5093157;28;20578;-76
2023/05/24 11:49:29;;;;;;;6.82;4.32;;;20.80;99.90;;;;;;5087410;28;20180;-74
2023/05/24 11:51:57;;;;;;;9.02;4.80;;;20.60;99.90;;;;;;5113308;28;20191;-74
2023/05/24 11:54:23;;;;;;;12.52;4.75;;;20.60;99.90;;;;;;5113471;28;20632;-74
2023/05/24 11:56:50;;;;;;;5.70;4.70;;;20.50;99.90;;;;;;5114988;28;20190;-75
2023/05/24 11:59:21;;;;;;;7.57;5.30;;;20.50;99.90;;;;;;5095016;28;20204;-76
2023/05/24 12:01:46;;;;;;;7.13;4.88;;;20.60;99.90;;;;;;5112970;28;20184;-74
2023/05/24 12:04:12;;;;;;;8.02;5.10;;;20.50;99.90;;;;;;5113502;28;20632;-74
2023/05/24 12:06:40;;;;;;;13.43;6.95;;;20.30;99.90;;;;;;5088768;28;20614;-72
2023/05/24 12:09:07;;;;;;;9.27;5.00;;;20.60;99.90;;;;;;5082447;28;20184;-74
2023/05/24 12:11:41;;;;;;;10.10;6.55;;;20.20;99.90;;;;;;5088888;28;20567;-75
2023/05/24 12:14:14;;;;;;;13.40;5.32;;;19.90;99.90;;;;;;5090040;28;20203;-75
2023/05/24 12:16:44;;;;;;;8.38;4.55;;;20.00;99.90;;;;;;5094796;28;20258;-75
2023/05/24 12:19:20;;;;;;;16.55;5.47;;;20.00;99.90;;;;;;5094282;28;20263;-73
2023/05/24 12:21:49;;;;;;;8.07;4.47;;;20.10;99.90;;;;;;5079756;28;20199;-75
2023/05/24 12:24:18;;;;;;;11.80;5.53;;;20.50;99.90;;;;;;5112951;28;20184;-75
2023/05/24 12:26:46;;;;;;;11.68;4.90;;;20.90;99.90;;;;;;5114122;28;20707;-76
2023/05/24 12:29:13;;;;;;;13.27;5.32;;;21.30;99.90;;;;;;5112976;28;20556;-75
2023/05/24 12:31:40;;;;;;;5.65;4.70;;;21.50;99.90;;;;;;5117658;28;20196;-75
2023/05/24 12:34:10;;;;;;;8.63;4.57;;;21.80;99.90;;;;;;5104100;28;20176;-75
2023/05/24 12:36:37;;;;;;;12.27;4.95;;;22.00;99.90;;;;;;5117200;28;20183;-75
2023/05/24 12:39:23;;;;;;;8.25;4.60;;;22.00;99.90;;;;;;5116909;28;20617;-75
2023/05/24 12:41:52;;;;;;;9.98;4.97;;;21.90;99.90;;;;;;5098402;28;20184;-75
2023/05/24 12:44:26;;;;;;;7.43;4.70;;;21.60;99.90;;;;;;5117208;28;20275;-76
2023/05/24 12:46:54;;;;;;;9.13;4.55;;;21.20;99.90;;;;;;5089706;28;20185;-75